Graceland, Illinois
Current Conditions -  °F | °C
As of 5:53 PM on Tuesday 25 Nov 2014 (Local Time) from KMDW Reporting Station
Broken Clouds Broken Clouds  
Wind Chill: 17°   Ceiling: 1900
Heat Index: 25°   Visibility: 10mi
Dew Point: 17°   Wind: 7mph
Humidity: 72%   Direction: 240°WSW
Pressure: 30.18"   Gusts: NA
Location:  41.9396°N, 87.6568°W
Report Text: KMDW 252353Z 24006KT 10SM BKN019 M04/M08 A3018 RMK AO2 SLP234 T10391083 11011 21044 53010
Loading
Personal Weather Stations






























Interactive Weather Map New forecast layout! Learn more

10-Day Weather Forecast

Advertisements
Track Severe Weather on mobile